Share

Gillette, WY

(North Gillette) (KWYGILLE6) Elev 4642 ft | 44.31 °N, 105.52 °W | Change Station

Current weather conditions updated 4 seconds ago

Mostly Cloudy
Mostly Cloudy
71.2 °F
Feels Like 75 °F
N
2.0
Wind Variable Wind from SSW
Gusts 10.0 mph
Sunrise 6:13 AM
Sunset 7:51 PM
Moon Waning Gibbous

Today is forecast to be Much Warmer than yesterday.

Pressure 29.57 in
Visibility 10.0 miles
Clouds Mostly Cloudy 9500 ft
Heat Index 75 °F
Dew Point 34 °F
Humidity 25%
Rainfall 0.00 in
Snow Depth Not available.
UV 5 out of 16
Pollen 10.30 out of 12
Air Quality Not available.
Flu Activity Sporadic
METAR KBYG 181953Z AUTO 01014G19KT 10SM BKN095 21/03 A2967 RMK AO2 SLP011 T02060028

More Conditions Fewer Conditions

Pressure 29.57 in
Visibility 10.0 miles
Clouds Mostly Cloudy 9500 ft
Heat Index 75 °F
Dew Point 34 °F
Humidity 25%
Rainfall 0.00 in
Snow Depth Not available.
UV 5 out of 16
Pollen 10.30 out of 12
Air Quality Not available.
Flu Activity Sporadic
METAR KBYG 181953Z AUTO 01014G19KT 10SM BKN095 21/03 A2967 RMK AO2 SLP011 T02060028

More Conditions Fewer Conditions

10-Day Weather Forecast

Almanac

Astronomy

Apr. 18, 2014 Rise Set
Actual Time 6:13 AM MDT 7:51 PM MDT
Civil Twilight 5:42 AM MDT 8:22 PM MDT
Nautical Twilight 5:05 AM MDT 8:59 PM MDT
Astronomical Twilight 4:25 AM MDT 9:39 PM MDT
Moon 11:44 PM MDT 8:32 AM MDT
Length of Visible Light 14h 39m
Length of Day
13h 37m
Tomorrow will be 2m 55s longer.
Waning Gibbous, 85% of the Moon is Illuminated
Today
Waning Gibbous
Apr 22
Last Quarter
Apr 29
New
May 6
First Quarter
May 14
Full

Today's Extremes

State Highs State Lows

Community

  • What's for Lunch?
    What's for Lunch?
  • SUNRISE THROUGH THE TREES.
    SUNRISE THROUGH THE TREES.
  • Dog Wood Blossoms
    Dog Wood Blossoms
  • Morning Light
    Morning Light
  • New Day
    New Day

WunderPhotos

Upload Photos

1,702,495 photos uploaded!

WunderBlogs® & News

Nearby

Snow Depth

Station Depth Elevation
Casper Mountain 53 in 7850 ft
Reno Hill 59 in 8500 ft
Laprele Creek 27 in 8375 ft
Windy Peak 27 in 7900 ft
Townsend Creek 26 in 8700 ft

Coastal Water Temperatures

Place Temperature
No Stations Reporting

Earthquake Activity

City Distance Mag. Time & Date
No recent earthquake activity has been reported nearby.
Minimum magnitude displayed is 2.5.

Nearby Weather Stations

Station Location Temp. Heat Index Dew Point Humidity Wind Precip. Elev Updated Type
(North Gillette), Gillette, WY 71.2 °F 75 °F 34 °F 25% SSW  at  2.0 mph 0.00 in / hr 4642 ft 2:57 PM MDT Rapid Fire

Show More Stations Show Fewer Stations

What do you think?

We're not finished. Please let us know what you like, what you don't like, and what you are still missing.